createdAt,value
2018-08-18T00:01:21.810Z,97.31
2018-08-18T00:03:48.842Z,97.90
2018-08-18T00:06:15.815Z,98.52
2018-08-18T00:08:42.805Z,98.30
2018-08-18T00:11:09.824Z,97.63
2018-08-18T00:13:52.052Z,97.77
2018-08-18T00:16:24.439Z,98.43
2018-08-18T00:18:55.073Z,98.30
2018-08-18T00:21:22.151Z,98.28
2018-08-18T00:23:59.060Z,98.14
2018-08-18T00:26:26.454Z,98.05
2018-08-18T00:28:54.052Z,98.27
2018-08-18T00:31:21.086Z,98.11
2018-08-18T00:33:48.173Z,98.48
2018-08-18T00:36:15.172Z,99.37
2018-08-18T00:38:42.396Z,99.33
2018-08-18T00:41:09.480Z,99.76
2018-08-18T00:43:36.559Z,100.00
2018-08-18T00:46:03.943Z,99.80
2018-08-18T00:48:30.948Z,99.71
2018-08-18T00:50:57.935Z,99.74
2018-08-18T00:53:24.951Z,100.00
2018-08-18T00:55:51.952Z,99.27
2018-08-18T00:58:26.390Z,98.97
2018-08-18T01:00:59.170Z,99.08
2018-08-18T01:03:26.223Z,100.00
2018-08-18T01:05:54.068Z,100.00
2018-08-18T01:08:21.083Z,99.90
2018-08-18T01:10:48.151Z,100.00
2018-08-18T01:13:15.182Z,100.00
2018-08-18T01:15:42.235Z,100.00
2018-08-18T01:18:09.340Z,100.00
2018-08-18T01:20:36.369Z,100.00
2018-08-18T01:23:03.395Z,100.00
2018-08-18T01:25:30.425Z,100.00
2018-08-18T01:27:58.629Z,100.00
2018-08-18T01:30:25.652Z,100.00
2018-08-18T01:32:52.658Z,100.00
2018-08-18T01:35:19.659Z,100.00
2018-08-18T01:37:46.683Z,100.00
2018-08-18T01:40:13.744Z,100.00
2018-08-18T01:42:40.809Z,100.00
2018-08-18T01:45:07.812Z,100.00
2018-08-18T01:47:34.969Z,100.00
2018-08-18T01:50:07.588Z,100.00
2018-08-18T01:52:37.543Z,100.00
2018-08-18T01:55:06.041Z,100.00
2018-08-18T01:57:33.097Z,100.00
2018-08-18T02:00:04.676Z,100.00
2018-08-18T02:02:31.679Z,100.00
2018-08-18T02:05:06.895Z,100.00
2018-08-18T02:07:33.910Z,100.00
2018-08-18T02:10:00.980Z,100.00
2018-08-18T02:12:28.502Z,100.00
2018-08-18T02:14:55.725Z,100.00
2018-08-18T02:17:35.397Z,100.00
2018-08-18T02:20:02.642Z,100.00
2018-08-18T02:22:30.422Z,100.00
2018-08-18T02:24:57.639Z,100.00
2018-08-18T02:27:24.913Z,100.00
2018-08-18T02:30:04.240Z,100.00
2018-08-18T02:32:35.793Z,100.00
2018-08-18T02:35:03.153Z,100.00
2018-08-18T02:37:30.595Z,100.00
2018-08-18T02:39:57.597Z,100.00
2018-08-18T02:42:24.610Z,100.00
2018-08-18T02:44:51.959Z,100.00
2018-08-18T02:47:18.991Z,100.00
2018-08-18T02:49:46.957Z,100.00
2018-08-18T02:52:20.806Z,100.00
2018-08-18T02:54:52.193Z,100.00
2018-08-18T02:57:19.192Z,100.00
2018-08-18T02:59:46.275Z,100.00
2018-08-18T03:02:13.271Z,100.00
2018-08-18T03:04:46.076Z,100.00
2018-08-18T03:07:13.084Z,100.00
2018-08-18T03:09:40.124Z,100.00
2018-08-18T03:12:07.139Z,100.00
2018-08-18T03:14:34.137Z,100.00
2018-08-18T03:17:01.143Z,100.00
2018-08-18T03:19:28.135Z,100.00
2018-08-18T03:21:55.124Z,100.00
2018-08-18T03:24:23.268Z,100.00
2018-08-18T03:26:52.956Z,100.00
2018-08-18T03:29:21.114Z,100.00
2018-08-18T03:31:48.467Z,100.00
2018-08-18T03:34:15.827Z,100.00
2018-08-18T03:36:49.306Z,100.00
2018-08-18T03:39:23.883Z,100.00
2018-08-18T03:41:52.327Z,100.00
2018-08-18T03:44:19.468Z,100.00
2018-08-18T03:46:46.507Z,100.00
2018-08-18T03:49:13.519Z,100.00
2018-08-18T03:51:42.488Z,100.00
2018-08-18T03:54:09.512Z,100.00
2018-08-18T03:56:36.525Z,100.00
2018-08-18T03:59:03.584Z,100.00
2018-08-18T04:01:40.063Z,100.00
2018-08-18T04:04:08.023Z,100.00
2018-08-18T04:06:36.604Z,100.00
2018-08-18T04:09:11.275Z,100.00
2018-08-18T04:11:38.922Z,99.53
2018-08-18T04:14:06.006Z,99.33
2018-08-18T04:16:34.947Z,99.02
2018-08-18T04:19:03.654Z,99.87
2018-08-18T04:21:33.172Z,100.00
2018-08-18T04:24:00.152Z,100.00
2018-08-18T04:26:27.651Z,100.00
2018-08-18T04:28:55.306Z,100.00
2018-08-18T04:31:35.647Z,100.00
2018-08-18T04:34:03.937Z,100.00
2018-08-18T04:36:31.486Z,100.00
2018-08-18T04:38:58.569Z,100.00
2018-08-18T04:41:25.702Z,100.00
2018-08-18T04:43:52.798Z,100.00
2018-08-18T04:46:19.804Z,100.00
2018-08-18T04:48:46.789Z,100.00
2018-08-18T04:51:14.069Z,100.00
2018-08-18T04:53:41.068Z,100.00
2018-08-18T04:56:08.103Z,100.00
2018-08-18T04:58:35.064Z,100.00
2018-08-18T05:01:02.079Z,100.00
2018-08-18T05:03:30.003Z,100.00
2018-08-18T05:05:56.992Z,100.00
2018-08-18T05:08:23.990Z,100.00
2018-08-18T05:10:51.057Z,100.00
2018-08-18T05:13:18.187Z,100.00
2018-08-18T05:15:45.273Z,100.00
2018-08-18T05:18:12.253Z,100.00
2018-08-18T05:20:39.253Z,100.00
2018-08-18T05:23:20.935Z,100.00
2018-08-18T05:25:49.864Z,100.00
2018-08-18T05:28:16.914Z,100.00
2018-08-18T05:30:43.910Z,100.00
2018-08-18T05:33:10.980Z,100.00
2018-08-18T05:35:37.976Z,100.00
2018-08-18T05:38:05.065Z,100.00
2018-08-18T05:40:33.291Z,100.00
2018-08-18T05:43:00.546Z,100.00
2018-08-18T05:45:30.214Z,100.00
2018-08-18T05:47:57.238Z,100.00
2018-08-18T05:50:24.827Z,100.00
2018-08-18T05:52:59.928Z,100.00
2018-08-18T05:55:26.963Z,100.00
2018-08-18T05:57:53.967Z,100.00
2018-08-18T06:00:23.067Z,100.00
2018-08-18T06:02:55.704Z,100.00
2018-08-18T06:05:25.074Z,100.00
2018-08-18T06:07:52.061Z,100.00
2018-08-18T06:10:19.053Z,100.00
2018-08-18T06:12:46.354Z,100.00
2018-08-18T06:15:13.372Z,100.00
2018-08-18T06:17:40.863Z,100.00
2018-08-18T06:20:07.928Z,100.00
2018-08-18T06:22:35.368Z,100.00
2018-08-18T06:25:02.489Z,100.00
2018-08-18T06:27:29.575Z,100.00
2018-08-18T06:29:57.735Z,100.00
2018-08-18T06:32:24.867Z,100.00
2018-08-18T06:34:52.097Z,100.00
2018-08-18T06:37:19.595Z,100.00
2018-08-18T06:39:55.036Z,99.44
2018-08-18T06:42:34.669Z,100.00
2018-08-18T06:45:01.753Z,98.55
2018-08-18T06:47:28.766Z,97.50
2018-08-18T06:49:55.751Z,96.07
2018-08-18T06:52:23.115Z,95.56
2018-08-18T06:54:51.447Z,94.47
2018-08-18T06:57:30.271Z,92.82
2018-08-18T07:00:02.084Z,91.53
2018-08-18T07:02:29.087Z,91.22
2018-08-18T07:04:56.159Z,90.34
2018-08-18T07:07:26.075Z,89.25
2018-08-18T07:09:53.566Z,88.73
2018-08-18T07:12:20.544Z,87.02
2018-08-18T07:14:47.532Z,85.67
2018-08-18T07:17:16.140Z,84.63
2018-08-18T07:19:43.140Z,83.80
2018-08-18T07:22:14.251Z,81.42
2018-08-18T07:24:41.323Z,78.74
2018-08-18T07:27:08.362Z,76.43
2018-08-18T07:29:46.989Z,75.23
2018-08-18T07:32:14.857Z,74.74
2018-08-18T07:34:41.832Z,75.47
2018-08-18T07:37:09.361Z,74.12
2018-08-18T07:39:37.009Z,73.55
2018-08-18T07:42:04.041Z,72.19
2018-08-18T07:44:31.568Z,72.61
2018-08-18T07:46:58.618Z,73.45
2018-08-18T07:49:25.768Z,73.29
2018-08-18T07:51:52.951Z,72.47
2018-08-18T07:54:20.039Z,72.35
2018-08-18T07:56:47.197Z,72.47
2018-08-18T07:59:14.579Z,72.09
2018-08-18T08:01:41.567Z,73.17
2018-08-18T08:04:08.544Z,73.47
2018-08-18T08:06:35.746Z,73.54
2018-08-18T08:09:03.817Z,73.19
2018-08-18T08:14:58.789Z,73.72
2018-08-18T08:21:03.773Z,72.42
2018-08-18T08:23:31.013Z,73.04
2018-08-18T08:25:59.454Z,72.83
2018-08-18T08:28:26.792Z,72.46
2018-08-18T08:30:53.865Z,73.00
2018-08-18T08:33:34.695Z,71.27
2018-08-18T08:36:02.345Z,71.22
2018-08-18T08:38:41.125Z,69.68
2018-08-18T08:41:14.983Z,69.14
2018-08-18T08:43:41.988Z,67.18
2018-08-18T08:46:09.132Z,66.98
2018-08-18T08:48:36.209Z,66.76
2018-08-18T08:51:03.671Z,67.26
2018-08-18T08:53:31.015Z,65.70
2018-08-18T08:55:58.011Z,64.00
2018-08-18T08:58:25.243Z,64.12
2018-08-18T09:00:52.311Z,63.83
2018-08-18T09:03:19.307Z,64.63
2018-08-18T09:05:46.484Z,65.43
2018-08-18T09:08:13.501Z,65.43
2018-08-18T09:10:40.573Z,66.30
2018-08-18T09:13:07.695Z,65.87
2018-08-18T09:15:34.790Z,63.65
2018-08-18T09:18:01.784Z,63.39
2018-08-18T09:20:33.397Z,62.77
2018-08-18T09:23:01.572Z,62.00
2018-08-18T09:25:31.200Z,61.70
2018-08-18T09:28:00.682Z,59.55
2018-08-18T09:30:29.031Z,61.52
2018-08-18T09:32:59.735Z,56.68
2018-08-18T09:35:26.739Z,58.91
2018-08-18T09:37:57.565Z,58.01
2018-08-18T09:40:25.431Z,59.09
2018-08-18T09:42:52.411Z,59.25
2018-08-18T09:45:19.539Z,59.61
2018-08-18T09:47:46.556Z,59.52
2018-08-18T09:50:13.583Z,58.34
2018-08-18T09:52:40.652Z,59.44
2018-08-18T09:55:07.772Z,59.16
2018-08-18T09:57:34.845Z,58.51
2018-08-18T10:00:01.870Z,58.64
2018-08-18T10:02:28.995Z,58.22
2018-08-18T10:04:55.988Z,58.17
2018-08-18T10:07:23.164Z,56.24
2018-08-18T10:09:50.636Z,56.95
2018-08-18T10:12:17.663Z,56.17
2018-08-18T10:14:44.670Z,56.52
2018-08-18T10:17:11.755Z,55.76
2018-08-18T10:19:39.088Z,54.71
2018-08-18T10:22:06.172Z,52.71
2018-08-18T10:24:33.289Z,53.22
2018-08-18T10:27:03.515Z,52.48
2018-08-18T10:29:30.500Z,52.76
2018-08-18T10:31:58.327Z,53.19
2018-08-18T10:34:26.721Z,51.92
2018-08-18T10:36:55.211Z,51.73
2018-08-18T10:39:22.228Z,52.45
2018-08-18T10:41:59.026Z,53.44
2018-08-18T10:44:26.133Z,53.34
2018-08-18T10:47:07.631Z,54.14
2018-08-18T10:49:46.276Z,54.01
2018-08-18T10:52:25.593Z,53.41
2018-08-18T10:54:52.640Z,52.35
2018-08-18T10:57:31.476Z,52.39
2018-08-18T10:59:59.235Z,52.79
2018-08-18T11:02:32.431Z,51.35
2018-08-18T11:04:59.668Z,51.03
2018-08-18T11:07:26.844Z,50.02
2018-08-18T11:09:53.929Z,51.08
2018-08-18T11:12:20.959Z,50.95
2018-08-18T11:14:54.431Z,50.84
2018-08-18T11:17:21.612Z,50.25
2018-08-18T11:19:48.695Z,49.11
2018-08-18T11:23:01.760Z,49.18
2018-08-18T11:25:33.906Z,48.45
2018-08-18T11:28:01.276Z,49.68
2018-08-18T11:30:28.719Z,48.86
2018-08-18T11:32:56.803Z,49.57
2018-08-18T11:35:23.899Z,48.09
2018-08-18T11:38:11.597Z,49.47
2018-08-18T11:40:38.684Z,48.13
2018-08-18T11:43:06.908Z,48.50
2018-08-18T11:45:35.061Z,48.62
2018-08-18T11:48:18.797Z,48.64
2018-08-18T11:50:46.379Z,49.05
2018-08-18T11:53:13.604Z,47.02
2018-08-18T11:55:40.810Z,46.94
2018-08-18T11:58:09.958Z,47.32
2018-08-18T12:01:08.678Z,46.64
2018-08-18T12:03:35.653Z,46.26
2018-08-18T12:06:03.859Z,46.76
2018-08-18T12:08:32.239Z,45.92
2018-08-18T12:11:00.787Z,45.71
2018-08-18T12:13:33.420Z,44.72
2018-08-18T12:16:08.888Z,45.92
2018-08-18T12:18:37.479Z,44.81
2018-08-18T12:21:04.901Z,43.98
2018-08-18T12:23:35.123Z,44.78
2018-08-18T12:26:15.152Z,44.34
2018-08-18T12:28:43.245Z,44.61
2018-08-18T12:31:16.221Z,45.16
2018-08-18T12:33:43.573Z,44.82
2018-08-18T12:36:10.699Z,45.02
2018-08-18T12:38:41.048Z,44.11
2018-08-18T12:41:08.320Z,43.53
2018-08-18T12:46:35.184Z,42.42
2018-08-18T12:49:03.635Z,42.73
2018-08-18T12:51:30.616Z,43.28
2018-08-18T12:53:57.651Z,42.88
2018-08-18T12:56:26.639Z,43.16
2018-08-18T12:58:53.661Z,43.00
2018-08-18T13:01:37.408Z,42.09
2018-08-18T13:04:06.701Z,41.81
2018-08-18T13:06:51.131Z,42.51
2018-08-18T13:09:20.260Z,42.80
2018-08-18T13:11:48.444Z,43.85
2018-08-18T13:14:17.849Z,42.67
2018-08-18T13:16:44.876Z,41.65
2018-08-18T13:19:13.879Z,39.94
2018-08-18T13:21:40.861Z,39.48
2018-08-18T13:24:07.892Z,40.56
2018-08-18T13:26:34.985Z,40.55
2018-08-18T13:29:08.661Z,40.76
2018-08-18T13:31:38.024Z,39.61
2018-08-18T13:34:06.112Z,39.43
2018-08-18T13:36:33.635Z,38.88
2018-08-18T13:39:00.647Z,37.62
2018-08-18T13:41:27.750Z,37.76
2018-08-18T13:43:54.799Z,39.03
2018-08-18T13:46:33.626Z,39.49
2018-08-18T13:49:03.332Z,38.81
2018-08-18T13:51:31.111Z,38.92
2018-08-18T13:54:00.189Z,38.27
2018-08-18T13:56:27.423Z,38.22
2018-08-18T13:58:55.407Z,39.11
2018-08-18T14:01:32.625Z,38.05
2018-08-18T14:03:59.678Z,40.08
2018-08-18T14:06:26.791Z,39.84
2018-08-18T14:08:57.769Z,39.38
2018-08-18T14:11:25.612Z,39.55
2018-08-18T14:13:52.683Z,39.44
2018-08-18T14:16:19.684Z,38.66
2018-08-18T14:18:46.676Z,37.90
2018-08-18T14:21:13.828Z,38.83
2018-08-18T14:23:40.853Z,38.56
2018-08-18T14:26:08.178Z,38.46
2018-08-18T14:28:35.386Z,39.00
2018-08-18T14:31:02.367Z,40.57
2018-08-18T14:33:30.030Z,41.10
2018-08-18T14:36:02.764Z,41.90
2018-08-18T14:38:29.840Z,41.40
2018-08-18T14:40:56.876Z,41.66
2018-08-18T14:43:28.466Z,42.08
2018-08-18T14:45:56.051Z,42.78
2018-08-18T14:48:23.060Z,43.07
2018-08-18T14:50:50.076Z,43.47
2018-08-18T14:53:22.980Z,43.38
2018-08-18T14:55:49.990Z,43.10
2018-08-18T14:58:21.631Z,42.75
2018-08-18T15:00:49.916Z,43.03
2018-08-18T15:03:17.040Z,44.05
2018-08-18T15:05:44.147Z,44.56
2018-08-18T15:08:11.211Z,44.48
2018-08-18T15:10:40.562Z,44.62
2018-08-18T15:13:08.341Z,45.00
2018-08-18T15:15:35.856Z,46.22
2018-08-18T15:18:06.443Z,46.49
2018-08-18T15:20:35.801Z,47.23
2018-08-18T15:23:03.739Z,46.80
2018-08-18T15:25:31.821Z,47.13
2018-08-18T15:28:02.476Z,46.58
2018-08-18T15:30:29.464Z,47.15
2018-08-18T15:32:56.555Z,46.89
2018-08-18T15:35:24.849Z,47.35
2018-08-18T15:37:51.852Z,47.41
2018-08-18T15:40:18.867Z,46.89
2018-08-18T15:42:45.915Z,47.15
2018-08-18T15:45:13.009Z,46.91
2018-08-18T15:47:39.993Z,46.95
2018-08-18T15:50:07.002Z,48.68
2018-08-18T15:52:34.467Z,48.18
2018-08-18T15:55:02.840Z,48.08
2018-08-18T15:57:29.975Z,48.11
2018-08-18T15:59:57.094Z,48.69
2018-08-18T16:02:24.131Z,48.71
2018-08-18T16:04:51.127Z,48.85
2018-08-18T16:07:18.143Z,49.01
2018-08-18T16:09:45.431Z,48.10
2018-08-18T16:12:12.567Z,49.15
2018-08-18T16:14:39.637Z,48.15
2018-08-18T16:17:06.768Z,49.29
2018-08-18T16:19:34.735Z,49.24
2018-08-18T16:22:02.248Z,49.42
2018-08-18T16:24:31.491Z,50.08
2018-08-18T16:26:59.199Z,49.77
2018-08-18T16:29:26.407Z,50.18
2018-08-18T16:32:08.311Z,49.27
2018-08-18T16:34:35.308Z,49.60
2018-08-18T16:37:02.295Z,49.37
2018-08-18T16:39:29.273Z,49.16
2018-08-18T16:41:56.264Z,49.42
2018-08-18T16:44:23.244Z,50.61
2018-08-18T16:46:50.232Z,50.14
2018-08-18T16:49:17.246Z,50.12
2018-08-18T16:51:44.290Z,49.47
2018-08-18T16:54:20.048Z,50.45
2018-08-18T16:56:47.998Z,50.30
2018-08-18T16:59:20.104Z,49.03
2018-08-18T17:09:19.083Z,49.03
2018-08-18T17:19:10.383Z,48.14
2018-08-18T17:26:46.911Z,48.86
2018-08-18T17:30:37.681Z,47.61
2018-08-18T17:33:05.412Z,47.81
2018-08-18T17:35:32.536Z,48.69
2018-08-18T17:56:47.416Z,54.19
2018-08-18T18:07:43.348Z,56.49
2018-08-18T18:10:10.643Z,56.73
2018-08-18T18:12:37.980Z,56.99
2018-08-18T18:15:39.318Z,57.37
2018-08-18T18:18:13.306Z,57.88
2018-08-18T18:20:41.409Z,58.43
2018-08-18T18:23:10.444Z,58.35
2018-08-18T18:25:37.924Z,58.11
2018-08-18T18:28:05.177Z,58.97
2018-08-18T18:30:32.417Z,59.04
2018-08-18T18:32:59.843Z,59.22
2018-08-18T18:35:27.017Z,60.07
2018-08-18T18:37:59.807Z,60.27
2018-08-18T18:40:27.183Z,59.92
2018-08-18T18:42:54.563Z,60.60
2018-08-18T18:45:23.561Z,60.75
2018-08-18T18:47:50.628Z,61.10
2018-08-18T18:50:19.021Z,61.79
2018-08-18T18:52:46.615Z,61.86
2018-08-18T18:55:13.930Z,62.58
2018-08-18T18:57:58.744Z,62.70
2018-08-18T19:00:26.148Z,62.53
2018-08-18T19:02:53.648Z,63.04
2018-08-18T19:05:25.051Z,63.64
2018-08-18T19:08:03.576Z,63.25
2018-08-18T19:10:30.812Z,64.05
2018-08-18T19:12:58.348Z,64.87
2018-08-18T19:15:26.829Z,64.05
2018-08-18T19:17:54.125Z,64.95
2018-08-18T19:20:22.890Z,64.73
2018-08-18T19:22:51.268Z,65.35
2018-08-18T19:25:18.324Z,65.65
2018-08-18T19:27:45.388Z,65.61
2018-08-18T19:30:12.400Z,66.25
2018-08-18T19:32:39.962Z,66.65
2018-08-18T19:35:07.866Z,66.49
2018-08-18T19:37:39.480Z,66.98
2018-08-18T19:40:06.722Z,67.74
2018-08-18T19:42:34.096Z,67.98
2018-08-18T19:45:01.351Z,68.02
2018-08-18T19:47:35.442Z,68.54
2018-08-18T19:50:02.999Z,69.11
2018-08-18T19:52:30.351Z,69.16
2018-08-18T19:54:57.769Z,69.49
2018-08-18T19:57:30.738Z,69.42
2018-08-18T20:00:05.585Z,70.10
2018-08-18T20:03:11.994Z,71.16
2018-08-18T20:05:39.236Z,71.54
2018-08-18T20:08:06.912Z,71.75
2018-08-18T20:10:44.035Z,71.51
2018-08-18T20:13:12.128Z,72.18
2018-08-18T20:15:39.748Z,72.06
2018-08-18T20:18:06.774Z,72.00
2018-08-18T20:20:34.132Z,72.50
2018-08-18T20:23:01.151Z,72.91
2018-08-18T20:25:28.375Z,72.71
2018-08-18T20:27:55.484Z,73.61
2018-08-18T20:30:22.575Z,73.22
2018-08-18T20:32:49.886Z,73.73
2018-08-18T20:35:16.875Z,73.94
2018-08-18T20:37:43.867Z,74.44
2018-08-18T20:40:11.268Z,74.88
2018-08-18T20:42:40.953Z,74.77
2018-08-18T20:45:09.260Z,74.88
2018-08-18T20:47:36.984Z,75.04
2018-08-18T20:50:06.140Z,74.82
2018-08-18T20:52:33.540Z,75.46
2018-08-18T20:55:01.144Z,75.44
2018-08-18T20:57:28.136Z,76.40
2018-08-18T20:59:55.199Z,76.68
2018-08-18T21:02:22.386Z,76.95
2018-08-18T21:04:54.408Z,76.99
2018-08-18T21:07:22.127Z,77.23
2018-08-18T21:09:49.494Z,77.54
2018-08-18T21:12:16.476Z,77.83
2018-08-18T21:14:43.555Z,77.71
2018-08-18T21:17:10.555Z,78.32
2018-08-18T21:19:37.554Z,78.31
2018-08-18T21:22:04.608Z,78.53
2018-08-18T21:24:31.839Z,78.58
2018-08-18T21:26:59.425Z,79.14
2018-08-18T21:29:27.171Z,79.44
2018-08-18T21:31:56.192Z,79.39
2018-08-18T21:34:24.543Z,79.53
2018-08-18T21:36:54.696Z,80.09
2018-08-18T21:39:21.748Z,80.33
2018-08-18T21:41:49.112Z,80.27
2018-08-18T21:44:16.431Z,80.39
2018-08-18T21:46:43.721Z,80.74
2018-08-18T21:49:11.632Z,80.66
2018-08-18T21:51:38.807Z,81.52
2018-08-18T21:54:06.391Z,81.61
2018-08-18T21:56:35.315Z,82.03
2018-08-18T21:59:07.238Z,82.05
2018-08-18T22:01:34.787Z,82.68
2018-08-18T22:04:02.000Z,83.12
2018-08-18T22:06:29.220Z,84.35
2018-08-18T22:09:13.591Z,84.28
2018-08-18T22:11:41.040Z,83.72
2018-08-18T22:14:12.338Z,84.60
2018-08-18T22:16:44.333Z,84.58
2018-08-18T22:19:11.768Z,85.27
2018-08-18T22:21:39.055Z,84.67
2018-08-18T22:24:06.296Z,85.68
2018-08-18T22:26:34.512Z,85.72
2018-08-18T22:29:02.827Z,85.87
2018-08-18T22:31:30.579Z,86.29
2018-08-18T22:33:58.549Z,86.69
2018-08-18T22:36:27.732Z,87.17
2018-08-18T22:38:55.851Z,86.50
2018-08-18T22:41:23.226Z,86.58
2018-08-18T22:43:50.470Z,87.36
2018-08-18T22:46:17.839Z,86.42
2018-08-18T22:48:45.893Z,87.44
2018-08-18T22:51:13.219Z,87.69
2018-08-18T22:53:43.189Z,88.16
2018-08-18T22:56:10.186Z,88.12
2018-08-18T22:58:37.238Z,88.20
2018-08-18T23:01:04.307Z,88.08
2018-08-18T23:03:31.579Z,87.87
2018-08-18T23:05:59.075Z,88.52
2018-08-18T23:08:26.572Z,88.88
2018-08-18T23:10:53.674Z,88.86
2018-08-18T23:13:20.887Z,89.26
2018-08-18T23:15:47.915Z,89.68
2018-08-18T23:18:15.247Z,89.07
2018-08-18T23:20:42.238Z,89.88
2018-08-18T23:23:09.215Z,90.35
2018-08-18T23:25:36.412Z,90.70
2018-08-18T23:28:03.408Z,90.44
2018-08-18T23:30:35.475Z,91.35
2018-08-18T23:33:04.272Z,91.40
2018-08-18T23:35:31.336Z,92.65
2018-08-18T23:37:58.559Z,92.62
2018-08-18T23:40:25.803Z,92.49
2018-08-18T23:42:53.091Z,93.19
2018-08-18T23:45:20.218Z,92.84
2018-08-18T23:47:54.722Z,93.80
2018-08-18T23:50:21.808Z,94.00
2018-08-18T23:52:56.347Z,93.44
2018-08-18T23:55:23.463Z,93.76
2018-08-18T23:57:50.851Z,94.59
